Time;durP1;ratioP1;P1;durP2;ratioP2;P2;SDS_P1;SDS_P2;PMS_P1;PMS_P2;Temp;Humidity;BMP_temperature;BMP_pressure;BME280_temperature;BME280_humidity;BME280_pressure;Samples;Min_cycle;Max_cycle;Signal;HPM_P1;HPM_P2
2023/01/17 00:00:57;;;;;;;0.00;0.00;;;;;;;3.13;95.14;98612.63;5053010;27;99387;-31
2023/01/17 00:03:22;;;;;;;0.10;0.10;;;;;;;3.16;95.39;98613.25;5053256;27;97238;-29
2023/01/17 00:11:15;;;;;;;0.00;0.00;;;;;;;3.17;95.61;98606.97;5053296;27;97060;-30
2023/01/17 00:13:40;;;;;;;0.20;0.20;;;;;;;3.17;95.35;98612.31;5053146;27;97872;-30
2023/01/17 00:16:06;;;;;;;1.00;0.20;;;;;;;3.17;95.43;98601.59;5053019;27;100538;-29
2023/01/17 00:18:32;;;;;;;0.10;0.05;;;;;;;3.16;95.08;98599.88;5052893;27;96721;-29
2023/01/17 00:26:26;;;;;;;0.70;0.22;;;;;;;3.18;94.82;98616.69;5053238;27;96643;-28
2023/01/17 01:35:48;;;;;;;0.00;0.00;;;;;;;3.01;92.86;98694.53;5052166;27;97911;-30
2023/01/17 01:38:14;;;;;;;0.00;0.00;;;;;;;3.01;92.91;98699.00;5050465;27;101041;-29
2023/01/17 01:40:44;;;;;;;0.47;0.30;;;;;;;3.01;92.40;98707.88;5052021;27;96717;-28
2023/01/17 01:43:12;;;;;;;0.00;0.00;;;;;;;2.96;91.81;98710.84;5052207;27;96659;-29
2023/01/17 01:45:39;;;;;;;0.00;0.00;;;;;;;2.93;91.97;98715.53;5050438;27;100747;-29
2023/01/17 01:48:33;;;;;;;0.00;0.00;;;;;;;2.93;92.76;98712.84;5050175;27;100974;-29
2023/01/17 01:51:02;;;;;;;0.00;0.00;;;;;;;2.90;92.46;98718.41;5028329;27;96745;-30
2023/01/17 01:53:32;;;;;;;0.00;0.00;;;;;;;2.90;92.79;98718.41;5050407;27;96903;-29
2023/01/17 01:55:58;;;;;;;0.03;0.03;;;;;;;2.91;92.80;98722.81;5050297;27;100941;-29
2023/01/17 01:58:27;;;;;;;0.08;0.00;;;;;;;2.84;92.06;98726.84;5050262;27;100950;-29
2023/01/17 02:00:52;;;;;;;0.00;0.00;;;;;;;2.78;92.01;98724.56;5050359;27;96522;-30
2023/01/17 02:03:30;;;;;;;0.15;0.10;;;;;;;2.74;92.40;98726.56;5055212;27;96718;-28
2023/01/17 02:06:08;;;;;;;0.00;0.00;;;;;;;2.68;92.59;98721.63;5053653;27;100732;-29
2023/01/17 02:08:34;;;;;;;0.00;0.00;;;;;;;2.62;92.99;98728.22;5054164;27;101006;-30
2023/01/17 02:11:01;;;;;;;0.45;0.15;;;;;;;2.58;92.80;98729.34;5053557;27;96594;-29
2023/01/17 02:13:27;;;;;;;0.00;0.00;;;;;;;2.53;92.78;98732.31;5055108;27;96750;-29
2023/01/17 02:16:01;;;;;;;0.00;0.00;;;;;;;2.49;92.70;98733.47;5053071;27;100968;-30
2023/01/17 02:18:35;;;;;;;0.00;0.00;;;;;;;2.46;92.84;98728.31;5054623;27;98802;-29
2023/01/17 02:21:23;;;;;;;0.00;0.00;;;;;;;2.43;92.71;98733.84;5054892;27;96449;-29
2023/01/17 02:24:19;;;;;;;0.00;0.00;;;;;;;2.40;92.77;98744.72;5054827;27;96838;-29
2023/01/17 02:27:26;;;;;;;0.00;0.00;;;;;;;2.38;93.03;98743.94;5054875;27;98007;-29
2023/01/17 02:30:22;;;;;;;0.00;0.00;;;;;;;2.37;93.02;98744.06;5024815;27;97357;-29
2023/01/17 02:33:04;;;;;;;0.00;0.00;;;;;;;2.38;93.39;98743.09;5054014;27;96653;-29
2023/01/17 02:35:36;;;;;;;0.00;0.00;;;;;;;2.34;92.98;98739.78;5055130;27;96712;-29
2023/01/17 02:38:06;;;;;;;0.00;0.00;;;;;;;2.38;93.62;98745.75;5054369;27;99422;-29
2023/01/17 02:40:42;;;;;;;0.00;0.00;;;;;;;2.39;93.78;98740.34;5054688;27;97792;-29
2023/01/17 02:43:12;;;;;;;0.00;0.00;;;;;;;2.42;93.99;98742.81;5052731;27;97156;-29
2023/01/17 02:45:37;;;;;;;0.00;0.00;;;;;;;2.44;94.02;98734.72;5053241;27;96818;-29
2023/01/17 02:48:06;;;;;;;0.03;0.03;;;;;;;2.42;93.60;98739.28;5054268;27;97937;-29
2023/01/17 02:51:11;;;;;;;0.00;0.00;;;;;;;2.43;93.75;98747.22;5054328;27;97936;-29
2023/01/17 02:54:01;;;;;;;0.00;0.00;;;;;;;2.46;93.75;98748.84;5046377;27;96946;-29
2023/01/17 02:56:38;;;;;;;0.00;0.00;;;;;;;2.44;93.70;98756.94;5052931;27;96786;-28
2023/01/17 02:59:19;;;;;;;0.17;0.17;;;;;;;2.45;93.91;98760.47;5052415;27;100838;-28
2023/01/17 03:02:16;;;;;;;0.00;0.00;;;;;;;2.40;94.19;98755.41;5054506;27;99424;-29
2023/01/17 03:05:11;;;;;;;0.00;0.00;;;;;;;2.42;93.72;98768.66;5054547;27;96555;-29
2023/01/17 03:07:38;;;;;;;0.10;0.10;;;;;;;2.41;93.92;98770.50;5027111;27;96728;-29
2023/01/17 03:10:05;;;;;;;0.00;0.00;;;;;;;2.36;93.86;98761.91;5052041;27;101045;-29
2023/01/17 03:12:34;;;;;;;0.00;0.00;;;;;;;2.34;93.93;98761.13;5053604;27;99623;-29
2023/01/17 03:14:59;;;;;;;0.20;0.10;;;;;;;2.29;93.67;98768.56;5052475;27;96579;-29
2023/01/17 03:17:30;;;;;;;0.20;0.03;;;;;;;2.29;94.24;98763.25;5054331;27;96964;-29
2023/01/17 03:19:55;;;;;;;0.00;0.00;;;;;;;2.32;94.07;98765.72;5053776;27;97494;-29
2023/01/17 03:22:21;;;;;;;0.10;0.08;;;;;;;2.31;93.79;98766.66;5053798;27;97790;-30
2023/01/17 03:24:46;;;;;;;0.45;0.45;;;;;;;2.27;93.82;98762.47;5053912;27;96553;-28
2023/01/17 03:27:12;;;;;;;0.10;0.10;;;;;;;2.24;94.35;98759.97;5052806;27;96814;-29
2023/01/17 03:29:37;;;;;;;0.52;0.25;;;;;;;2.21;94.35;98760.16;5053336;27;97862;-29
2023/01/17 03:32:03;;;;;;;0.00;0.00;;;;;;;2.23;93.99;98768.94;5053481;27;106115;-28
2023/01/17 03:34:28;;;;;;;0.00;0.00;;;;;;;2.20;94.11;98767.31;5053186;27;96622;-29
2023/01/17 03:36:56;;;;;;;0.00;0.00;;;;;;;2.16;94.22;98767.59;5053844;27;96746;-29
2023/01/17 03:39:21;;;;;;;0.00;0.00;;;;;;;2.15;93.76;98765.91;5053239;27;99866;-29
2023/01/17 03:41:46;;;;;;;0.10;0.10;;;;;;;2.11;93.96;98765.19;5053546;27;97321;-29
2023/01/17 03:44:12;;;;;;;0.00;0.00;;;;;;;2.10;93.82;98761.69;5053443;27;101139;-29
2023/01/17 03:46:37;;;;;;;0.10;0.03;;;;;;;2.07;94.32;98759.22;5053748;27;96776;-29
2023/01/17 03:49:02;;;;;;;0.00;0.00;;;;;;;2.06;93.70;98764.63;5053131;27;99748;-29
2023/01/17 03:51:28;;;;;;;0.00;0.00;;;;;;;2.05;93.77;98771.78;5053595;27;99178;-29
2023/01/17 03:53:53;;;;;;;0.55;0.32;;;;;;;2.01;93.63;98772.06;5053727;27;96613;-29
2023/01/17 03:56:18;;;;;;;0.00;0.00;;;;;;;1.98;94.03;98770.44;5053536;27;96792;-28
2023/01/17 03:58:44;;;;;;;0.00;0.00;;;;;;;1.99;93.57;98772.13;5052746;27;97172;-29
2023/01/17 04:01:10;;;;;;;0.00;0.00;;;;;;;1.97;93.70;98770.50;5053174;27;97243;-29
2023/01/17 04:03:35;;;;;;;0.40;0.30;;;;;;;1.95;93.72;98767.94;5052919;27;96817;-29
2023/01/17 04:06:00;;;;;;;0.08;0.00;;;;;;;1.94;93.74;98779.56;5053287;27;96850;-29
2023/01/17 04:08:26;;;;;;;0.00;0.00;;;;;;;1.91;93.89;98775.28;5053141;27;97665;-28
2023/01/17 04:10:51;;;;;;;0.28;0.05;;;;;;;1.90;93.67;98772.69;5053247;27;97244;-28
2023/01/17 04:13:16;;;;;;;0.17;0.10;;;;;;;1.88;93.53;98775.47;5053303;27;96559;-28
2023/01/17 04:15:47;;;;;;;0.38;0.17;;;;;;;1.86;93.62;98776.47;5053614;27;96786;-29
2023/01/17 04:18:16;;;;;;;0.10;0.10;;;;;;;1.84;93.41;98776.59;5051366;27;101435;-29
2023/01/17 04:20:41;;;;;;;0.30;0.15;;;;;;;1.81;93.76;98781.22;5052815;27;97181;-29
2023/01/17 04:23:07;;;;;;;0.00;0.00;;;;;;;1.80;93.80;98779.53;5052153;27;96841;-29
2023/01/17 04:25:32;;;;;;;0.00;0.00;;;;;;;1.79;93.73;98781.34;5052840;27;96767;-30
2023/01/17 04:27:59;;;;;;;0.00;0.00;;;;;;;1.80;93.58;98787.53;5053204;27;97367;-28
2023/01/17 04:30:27;;;;;;;0.00;0.00;;;;;;;1.80;93.57;98787.53;5050816;27;100786;-29
2023/01/17 04:32:52;;;;;;;0.00;0.00;;;;;;;1.76;93.29;98780.66;5051414;27;96625;-28
2023/01/17 04:35:17;;;;;;;0.00;0.00;;;;;;;1.78;93.61;98784.09;5053017;27;96624;-31
2023/01/17 04:37:43;;;;;;;0.00;0.00;;;;;;;1.69;93.86;98778.38;5052758;27;97856;-29
2023/01/17 04:40:09;;;;;;;0.32;0.20;;;;;;;1.74;93.21;98777.22;5052997;27;97327;-30
2023/01/17 04:42:35;;;;;;;0.00;0.00;;;;;;;1.68;92.74;98779.28;5051138;27;98018;-29
2023/01/17 04:45:00;;;;;;;0.00;0.00;;;;;;;1.69;93.13;98778.38;5052682;27;97102;-29
2023/01/17 04:47:26;;;;;;;0.00;0.00;;;;;;;1.75;93.07;98784.28;5051964;27;97285;-28
2023/01/17 04:49:52;;;;;;;0.00;0.00;;;;;;;1.75;93.33;98785.13;5052345;27;98810;-29
2023/01/17 04:52:19;;;;;;;0.00;0.00;;;;;;;1.76;93.15;98781.50;5051086;27;96680;-29
2023/01/17 04:54:47;;;;;;;0.00;0.00;;;;;;;1.78;93.23;98786.75;5051074;27;96794;-28
2023/01/17 04:57:14;;;;;;;0.15;0.10;;;;;;;1.77;93.06;98782.38;5050998;27;100724;-29
2023/01/17 04:59:39;;;;;;;1.17;0.10;;;;;;;1.76;93.36;98786.84;5050818;27;99063;-29
2023/01/17 05:02:04;;;;;;;0.50;0.38;;;;;;;1.76;93.22;98792.19;5052184;27;97912;-29
2023/01/17 05:04:30;;;;;;;0.00;0.00;;;;;;;1.76;93.04;98786.00;5053062;27;96774;-28
2023/01/17 05:06:55;;;;;;;0.00;0.00;;;;;;;1.78;93.27;98781.44;5052160;27;109033;-31
2023/01/17 05:09:20;;;;;;;0.00;0.00;;;;;;;1.78;93.15;98797.44;5052758;27;96999;-28
2023/01/17 05:11:46;;;;;;;2.10;0.68;;;;;;;1.79;92.64;98786.69;5051641;27;96623;-29
2023/01/17 05:14:11;;;;;;;1.00;0.22;;;;;;;1.81;92.65;98795.47;5052204;27;96747;-31
2023/01/17 05:16:36;;;;;;;0.00;0.00;;;;;;;1.81;92.84;98794.56;5052005;27;97450;-29
2023/01/17 05:19:01;;;;;;;0.38;0.05;;;;;;;1.78;92.51;98806.31;5052640;27;97231;-29
2023/01/17 05:21:27;;;;;;;0.03;0.03;;;;;;;1.79;92.69;98804.47;5052303;27;96502;-28
2023/01/17 05:23:52;;;;;;;0.10;0.10;;;;;;;1.79;92.88;98809.81;5052011;27;96838;-29
2023/01/17 05:26:18;;;;;;;0.10;0.10;;;;;;;1.81;92.55;98807.94;5052082;27;97289;-29
2023/01/17 05:28:43;;;;;;;0.75;0.45;;;;;;;1.82;92.78;98813.19;5051765;27;99170;-29
2023/01/17 05:31:08;;;;;;;0.10;0.00;;;;;;;1.82;92.43;98818.53;5050373;27;96742;-30
2023/01/17 05:33:34;;;;;;;0.00;0.00;;;;;;;1.81;92.81;98819.50;5052244;27;96799;-29
2023/01/17 05:35:59;;;;;;;0.32;0.20;;;;;;;1.80;92.34;98820.41;5051433;27;109103;-30
2023/01/17 05:38:24;;;;;;;0.10;0.10;;;;;;;1.82;92.74;98828.34;5055606;27;97580;-29
2023/01/17 05:40:50;;;;;;;0.00;0.00;;;;;;;1.82;92.45;98823.00;5055465;27;96539;-29
2023/01/17 05:43:15;;;;;;;0.00;0.00;;;;;;;1.80;92.40;98822.22;5055723;27;96806;-29
2023/01/17 05:45:41;;;;;;;0.00;0.00;;;;;;;1.78;92.27;98829.47;5053520;27;98989;-29
2023/01/17 05:48:07;;;;;;;0.20;0.05;;;;;;;1.74;92.59;98826.13;5055325;27;97409;-29
2023/01/17 05:50:36;;;;;;;0.10;0.10;;;;;;;1.73;92.48;98827.06;5053939;27;96591;-29
2023/01/17 05:53:07;;;;;;;0.80;0.20;;;;;;;1.75;91.87;98835.00;5054249;27;96541;-28
2023/01/17 05:55:33;;;;;;;0.00;0.00;;;;;;;1.72;91.68;98833.38;5053877;27;100842;-31
2023/01/17 05:57:59;;;;;;;0.22;0.10;;;;;;;1.68;91.62;98829.13;5053643;27;100839;-29
2023/01/17 06:00:25;;;;;;;0.00;0.00;;;;;;;1.72;91.95;98832.47;5052957;27;97411;-30
2023/01/17 06:02:54;;;;;;;0.10;0.10;;;;;;;1.70;91.51;98830.78;5055148;27;96790;-29
2023/01/17 06:05:20;;;;;;;0.00;0.00;;;;;;;1.72;91.86;98840.47;5053505;27;100723;-29
2023/01/17 06:07:46;;;;;;;0.20;0.20;;;;;;;1.70;92.04;98841.44;5053525;27;100821;-29
2023/01/17 06:10:13;;;;;;;0.55;0.20;;;;;;;1.68;91.59;98832.66;5053682;27;96491;-29
2023/01/17 06:12:39;;;;;;;0.90;0.60;;;;;;;1.67;91.62;98844.31;5053566;27;96793;-29
2023/01/17 06:15:05;;;;;;;0.00;0.00;;;;;;;1.68;91.53;98845.16;5054886;27;97867;-28
2023/01/17 06:17:31;;;;;;;0.00;0.00;;;;;;;1.65;91.53;98843.53;5055368;27;97260;-29
2023/01/17 06:19:56;;;;;;;0.17;0.10;;;;;;;1.65;91.49;98840.84;5055053;27;96461;-29
2023/01/17 06:22:21;;;;;;;0.55;0.52;;;;;;;1.62;91.04;98846.38;5054540;27;102169;-29
2023/01/17 06:24:47;;;;;;;0.13;0.05;;;;;;;1.60;91.11;98850.94;5054284;27;100799;-30
2023/01/17 06:27:12;;;;;;;0.00;0.00;;;;;;;1.62;91.70;98841.03;5054750;27;97856;-30
2023/01/17 06:29:37;;;;;;;0.00;0.00;;;;;;;1.62;90.59;98842.81;5054351;27;96508;-29
2023/01/17 06:32:03;;;;;;;0.50;0.22;;;;;;;1.65;90.84;98848.84;5054827;27;96795;-29
2023/01/17 06:34:28;;;;;;;0.10;0.03;;;;;;;1.62;90.39;98834.81;5053249;27;100621;-29
2023/01/17 06:36:54;;;;;;;0.50;0.30;;;;;;;1.65;90.29;98843.53;5054960;27;97232;-29
2023/01/17 06:39:19;;;;;;;0.00;0.00;;;;;;;1.68;90.36;98845.16;5054613;27;96628;-29
2023/01/17 06:41:44;;;;;;;0.00;0.00;;;;;;;1.65;90.52;98846.19;5055022;27;96762;-30
2023/01/17 06:44:10;;;;;;;1.55;0.40;;;;;;;1.66;90.25;98845.22;5054109;27;101506;-29
2023/01/17 06:46:35;;;;;;;0.50;0.05;;;;;;;1.65;90.10;98842.66;5054377;27;97361;-29
2023/01/17 06:49:01;;;;;;;0.00;0.00;;;;;;;1.61;89.55;98841.97;5052868;27;96826;-29
2023/01/17 06:51:26;;;;;;;4.13;0.30;;;;;;;1.65;89.95;98843.53;5054029;27;105693;-29
2023/01/17 06:53:52;;;;;;;1.38;0.25;;;;;;;1.63;90.17;98837.41;5054155;27;99236;-29
2023/01/17 06:56:17;;;;;;;0.00;0.00;;;;;;;1.64;89.91;98840.94;5054180;27;97829;-29
2023/01/17 06:58:42;;;;;;;0.20;0.10;;;;;;;1.64;89.84;98835.59;5054484;27;96668;-29
2023/01/17 07:01:10;;;;;;;0.32;0.28;;;;;;;1.63;90.30;98837.41;5054250;27;96780;-29
2023/01/17 07:03:35;;;;;;;0.10;0.10;;;;;;;1.64;90.17;98841.78;5054208;27;97927;-29
2023/01/17 07:06:02;;;;;;;0.00;0.00;;;;;;;1.63;90.13;98842.75;5054348;27;99209;-30
2023/01/17 07:08:28;;;;;;;0.00;0.00;;;;;;;1.61;89.57;98839.31;5052899;27;96612;-29
2023/01/17 07:11:01;;;;;;;0.00;0.00;;;;;;;1.63;89.43;98833.88;5052850;27;96857;-29
2023/01/17 07:13:27;;;;;;;0.10;0.10;;;;;;;1.63;89.85;98836.56;5052228;27;98905;-28
2023/01/17 07:15:53;;;;;;;0.00;0.00;;;;;;;1.62;89.39;98838.38;5052539;27;101222;-29
2023/01/17 07:18:21;;;;;;;0.00;0.00;;;;;;;1.64;89.37;98841.78;5053574;27;97091;-29
2023/01/17 07:20:50;;;;;;;0.28;0.28;;;;;;;1.62;89.41;98846.38;5052482;27;96867;-30
2023/01/17 07:23:16;;;;;;;0.25;0.17;;;;;;;1.59;89.24;98845.69;5051776;27;98957;-29
2023/01/17 07:25:41;;;;;;;6.80;0.32;;;;;;;1.55;89.33;98847.69;5052144;27;100927;-28
2023/01/17 07:28:07;;;;;;;0.00;0.00;;;;;;;1.55;88.86;98852.13;5053776;27;96513;-29
2023/01/17 07:30:33;;;;;;;0.00;0.00;;;;;;;1.54;89.17;98861.09;5052643;27;96846;-29
2023/01/17 07:33:00;;;;;;;0.00;0.00;;;;;;;1.49;89.58;98854.19;5052300;27;101105;-29
2023/01/17 07:35:26;;;;;;;0.35;0.13;;;;;;;1.46;89.80;98853.53;5049717;27;100698;-29
2023/01/17 07:37:51;;;;;;;0.08;0.08;;;;;;;1.43;89.76;98856.34;5050650;27;97043;-30
2023/01/17 07:40:18;;;;;;;0.00;0.00;;;;;;;1.41;89.54;98860.94;5051116;27;96725;-32
2023/01/17 07:42:44;;;;;;;1.73;0.63;;;;;;;1.41;89.72;98867.13;5051018;27;99231;-33
2023/01/17 07:45:11;;;;;;;0.13;0.10;;;;;;;1.35;89.76;98856.78;5050926;27;99513;-29
2023/01/17 07:47:37;;;;;;;0.00;0.00;;;;;;;1.32;89.42;98864.97;5049507;27;96758;-30
2023/01/17 07:50:03;;;;;;;0.03;0.00;;;;;;;1.31;90.02;98870.38;5052442;27;96623;-29
2023/01/17 07:52:28;;;;;;;0.30;0.10;;;;;;;1.30;90.06;98866.00;5051772;27;100137;-29
2023/01/17 07:54:54;;;;;;;0.52;0.52;;;;;;;1.32;89.40;98885.44;5053493;27;99412;-29
2023/01/17 07:57:19;;;;;;;0.52;0.28;;;;;;;1.28;89.47;98877.59;5035183;27;96668;-29
2023/01/17 07:59:45;;;;;;;0.08;0.05;;;;;;;1.24;89.30;98876.06;5053138;27;96716;-29
2023/01/17 08:02:18;;;;;;;0.00;0.00;;;;;;;1.23;89.48;98879.66;5052861;27;97797;-29
2023/01/17 08:04:44;;;;;;;0.45;0.25;;;;;;;1.24;89.72;98878.72;5051757;27;100790;-29
2023/01/17 08:07:10;;;;;;;0.10;0.10;;;;;;;1.23;89.92;98885.00;5053399;27;96521;-29
2023/01/17 08:09:35;;;;;;;0.00;0.00;;;;;;;1.22;89.67;98882.44;5053100;27;96806;-30
2023/01/17 08:12:01;;;;;;;0.95;0.70;;;;;;;1.18;89.59;98870.22;5053132;27;97929;-29
2023/01/17 08:14:26;;;;;;;1.15;0.57;;;;;;;1.20;89.59;98879.00;5052827;27;99187;-30
2023/01/17 08:16:52;;;;;;;1.40;0.43;;;;;;;1.20;90.55;98882.50;5053223;27;96602;-28
2023/01/17 08:19:17;;;;;;;2.05;1.08;;;;;;;1.17;90.63;98885.34;5053265;27;96744;-29
2023/01/17 08:21:43;;;;;;;0.35;0.30;;;;;;;1.17;90.39;98880.00;5052677;27;99355;-29
2023/01/17 08:24:12;;;;;;;0.38;0.38;;;;;;;1.15;90.06;98884.56;5052473;27;97863;-29
2023/01/17 08:26:38;;;;;;;0.28;0.28;;;;;;;1.16;90.64;98880.94;5051201;27;96581;-29
2023/01/17 08:29:04;;;;;;;1.35;0.65;;;;;;;1.19;90.53;98883.47;5052365;27;96592;-29
2023/01/17 08:31:32;;;;;;;0.77;0.35;;;;;;;1.17;90.32;98879.13;5053001;27;97471;-29
2023/01/17 08:33:57;;;;;;;0.75;0.65;;;;;;;1.20;90.23;98876.31;5051397;27;101258;-29
2023/01/17 08:36:27;;;;;;;1.13;1.02;;;;;;;1.22;90.50;98871.78;5052982;27;96460;-30
2023/01/17 08:38:53;;;;;;;0.43;0.20;;;;;;;1.18;90.50;98870.22;5051172;27;96723;-29
2023/01/17 08:41:20;;;;;;;0.80;0.63;;;;;;;1.21;90.53;98884.22;5049644;27;100926;-29
2023/01/17 08:43:46;;;;;;;1.48;0.43;;;;;;;1.21;90.67;98881.56;5052462;27;97879;-28
2023/01/17 08:46:12;;;;;;;1.90;0.43;;;;;;;1.23;90.53;98886.81;5050229;27;96775;-29
2023/01/17 08:48:37;;;;;;;0.10;0.10;;;;;;;1.24;90.38;98885.84;5051129;27;96823;-29
2023/01/17 08:51:03;;;;;;;0.60;0.20;;;;;;;1.26;90.16;98887.50;5051363;27;97301;-29
2023/01/17 08:53:29;;;;;;;0.82;0.20;;;;;;;1.26;90.57;98884.84;5050926;27;100987;-29
2023/01/17 08:56:02;;;;;;;0.00;0.00;;;;;;;1.31;90.33;98889.94;5052390;27;96446;-31
2023/01/17 08:58:29;;;;;;;0.10;0.10;;;;;;;1.35;90.47;98891.47;5051070;27;96660;-29
2023/01/17 09:00:58;;;;;;;0.10;0.00;;;;;;;1.35;90.56;98888.78;5049164;27;100806;-29
2023/01/17 09:03:24;;;;;;;0.05;0.03;;;;;;;1.41;90.38;98898.28;5050826;27;101447;-30
2023/01/17 09:05:49;;;;;;;0.00;0.00;;;;;;;1.42;90.55;98891.97;5052671;27;96683;-29
2023/01/17 09:08:14;;;;;;;0.57;0.38;;;;;;;1.45;90.26;98894.47;5051860;27;96746;-29
2023/01/17 09:10:40;;;;;;;0.38;0.30;;;;;;;1.46;90.09;98897.06;5050931;27;97757;-29
2023/01/17 09:13:05;;;;;;;0.52;0.35;;;;;;;1.49;90.50;98901.38;5055166;27;97297;-29
2023/01/17 09:15:31;;;;;;;0.10;0.10;;;;;;;1.53;90.28;98908.25;5054510;27;96630;-29
2023/01/17 09:17:57;;;;;;;0.00;0.00;;;;;;;1.52;90.05;98901.19;5053915;27;96896;-29
2023/01/17 09:20:23;;;;;;;0.08;0.08;;;;;;;1.53;90.17;98902.94;5055468;27;99680;-29
2023/01/17 09:22:49;;;;;;;0.70;0.25;;;;;;;1.59;89.95;98913.22;5054158;27;98972;-29
2023/01/17 09:25:15;;;;;;;1.15;0.20;;;;;;;1.59;89.47;98915.06;5054635;27;96651;-30
2023/01/17 09:27:44;;;;;;;0.20;0.20;;;;;;;1.56;88.92;98905.41;5055971;27;96733;-30
2023/01/17 09:30:10;;;;;;;1.35;0.47;;;;;;;1.58;86.53;98916.00;5053329;27;101090;-29
2023/01/17 09:32:37;;;;;;;0.77;0.15;;;;;;;1.60;87.95;98914.97;5055924;27;99907;-29
2023/01/17 09:35:06;;;;;;;0.43;0.28;;;;;;;1.60;87.42;98920.31;5054089;27;96669;-29
2023/01/17 09:37:31;;;;;;;1.08;0.15;;;;;;;1.56;85.79;98918.75;5054241;27;96801;-29
2023/01/17 09:39:56;;;;;;;2.60;0.75;;;;;;;1.61;87.58;98916.69;5054977;27;98040;-31
2023/01/17 09:42:38;;;;;;;0.00;0.00;;;;;;;1.67;87.60;98924.34;5055517;27;97302;-29
2023/01/17 09:45:11;;;;;;;0.20;0.13;;;;;;;1.66;87.00;98917.28;5054171;27;96505;-29
2023/01/17 09:47:42;;;;;;;0.47;0.32;;;;;;;1.70;87.41;98921.50;5053800;27;96709;-29
2023/01/17 09:50:28;;;;;;;0.65;0.20;;;;;;;1.76;88.23;98927.44;5053797;27;101262;-29
2023/01/17 09:53:03;;;;;;;0.20;0.20;;;;;;;1.87;88.10;98933.03;5053899;27;101105;-29
2023/01/17 09:55:35;;;;;;;0.10;0.10;;;;;;;1.89;88.27;98932.00;5054010;27;96578;-29
2023/01/17 09:58:16;;;;;;;0.20;0.20;;;;;;;1.94;88.46;98926.41;5054321;27;96704;-29
2023/01/17 10:00:41;;;;;;;0.35;0.20;;;;;;;2.04;87.95;98940.94;5053798;27;101167;-31
2023/01/17 10:03:40;;;;;;;1.05;0.63;;;;;;;2.15;87.75;98936.81;5055022;27;98813;-28
2023/01/17 10:06:18;;;;;;;0.35;0.20;;;;;;;2.28;87.76;98943.13;5054498;27;96610;-29
2023/01/17 10:08:46;;;;;;;0.25;0.20;;;;;;;2.42;87.89;98947.69;5053954;27;96666;-28
2023/01/17 10:11:49;;;;;;;0.43;0.43;;;;;;;2.60;87.68;98951.06;5054949;27;97313;-29
2023/01/17 10:14:35;;;;;;;0.22;0.17;;;;;;;2.78;86.94;98947.28;5055148;27;97915;-29
2023/01/17 10:17:28;;;;;;;0.10;0.10;;;;;;;2.95;87.19;98951.59;5055009;27;96661;-29
2023/01/17 10:20:15;;;;;;;0.22;0.22;;;;;;;3.02;86.42;98952.09;5055058;27;96639;-29
2023/01/17 10:23:05;;;;;;;0.30;0.15;;;;;;;3.11;85.84;98949.72;5054788;27;97030;-30
2023/01/17 10:25:43;;;;;;;0.47;0.20;;;;;;;3.25;85.96;98946.19;5053676;27;98885;-29
2023/01/17 10:28:16;;;;;;;0.15;0.15;;;;;;;3.48;85.91;98943.88;5053463;27;96579;-29
2023/01/17 10:31:04;;;;;;;0.57;0.22;;;;;;;3.76;85.68;98943.84;5052944;27;96869;-29
2023/01/17 10:33:50;;;;;;;0.90;0.75;;;;;;;3.95;84.86;98945.34;5052739;27;100795;-29
2023/01/17 10:36:25;;;;;;;0.65;0.47;;;;;;;4.30;84.42;98951.06;5054587;27;99386;-29
2023/01/17 10:38:55;;;;;;;0.38;0.35;;;;;;;4.50;83.29;98948.84;5054887;27;96580;-29
2023/01/17 10:41:29;;;;;;;1.38;0.22;;;;;;;4.73;82.11;98944.63;5053309;27;96840;-29
2023/01/17 10:44:33;;;;;;;0.20;0.20;;;;;;;4.98;81.69;98943.78;5053136;27;101505;-29
2023/01/17 10:47:19;;;;;;;0.30;0.10;;;;;;;5.22;81.09;98943.88;5048400;27;100993;-29
2023/01/17 10:49:47;;;;;;;0.90;0.40;;;;;;;5.31;79.34;98937.88;5053093;27;96767;-29
2023/01/17 10:52:28;;;;;;;0.03;0.03;;;;;;;5.27;80.54;98944.44;5053509;27;96680;-29
2023/01/17 10:55:22;;;;;;;0.22;0.13;;;;;;;5.21;79.65;98943.03;5054135;27;99495;-32
2023/01/17 10:57:49;;;;;;;0.98;0.60;;;;;;;5.06;79.18;98944.97;5052808;27;100776;-29
2023/01/17 11:00:37;;;;;;;0.10;0.10;;;;;;;4.95;78.09;98939.50;5052397;27;96712;-31
2023/01/17 11:03:03;;;;;;;0.35;0.20;;;;;;;4.91;79.32;98940.69;5054135;27;96500;-29
2023/01/17 11:05:31;;;;;;;0.50;0.40;;;;;;;4.99;78.58;98934.78;5054284;27;97287;-29
2023/01/17 11:08:10;;;;;;;0.32;0.20;;;;;;;5.03;78.92;98929.09;5053997;27;97353;-32
2023/01/17 11:10:45;;;;;;;0.22;0.20;;;;;;;5.25;79.33;98924.91;5052555;27;96571;-29
2023/01/17 11:13:33;;;;;;;0.93;0.60;;;;;;;5.49;79.16;98931.22;5052941;27;96800;-29
2023/01/17 11:16:09;;;;;;;0.82;0.43;;;;;;;5.59;78.72;98928.72;5052559;27;100113;-29
2023/01/17 11:18:38;;;;;;;0.93;0.63;;;;;;;5.72;77.03;98928.69;5052888;27;100953;-30
2023/01/17 11:21:20;;;;;;;0.77;0.35;;;;;;;5.81;77.30;98928.00;5052623;27;96875;-28
2023/01/17 11:23:56;;;;;;;;;;;;;;;5.90;77.36;98924.66;5053055;27;96736;-29
2023/01/17 11:26:26;;;;;;;0.47;0.30;;;;;;;5.88;76.29;98931.13;5052171;27;101151;-29
2023/01/17 11:28:52;;;;;;;1.10;0.50;;;;;;;5.83;76.99;98926.06;5051937;27;100779;-30
2023/01/17 11:31:17;;;;;;;0.10;0.10;;;;;;;5.80;75.75;98928.16;5053767;27;96556;-29
2023/01/17 11:33:54;;;;;;;0.47;0.40;;;;;;;5.91;75.93;98921.00;5053540;27;96776;-29
2023/01/17 11:36:28;;;;;;;0.68;0.30;;;;;;;6.02;75.62;98927.44;5053882;27;97993;-29
2023/01/17 11:39:16;;;;;;;0.80;0.30;;;;;;;6.04;73.74;98917.44;5053624;27;99409;-29
2023/01/17 11:41:43;;;;;;;0.38;0.20;;;;;;;5.84;73.73;98919.75;5052415;27;96751;-29
2023/01/17 11:44:26;;;;;;;0.80;0.47;;;;;;;5.83;73.44;98914.47;5052365;27;96917;-31
2023/01/17 11:47:10;;;;;;;1.48;0.43;;;;;;;5.83;73.89;98917.16;5051972;27;98891;-29
2023/01/17 11:49:36;;;;;;;0.40;0.20;;;;;;;5.84;74.46;98919.75;5053490;27;97837;-29
2023/01/17 11:52:17;;;;;;;0.70;0.57;;;;;;;5.78;74.24;98922.88;5051678;27;96779;-29
2023/01/17 11:54:47;;;;;;;1.98;0.63;;;;;;;5.72;76.07;98917.94;5052026;27;97326;-29
2023/01/17 11:57:21;;;;;;;1.00;0.47;;;;;;;5.70;76.08;98911.84;5051770;27;100925;-31
2023/01/17 11:59:47;;;;;;;0.70;0.50;;;;;;;5.71;72.53;98917.06;5052157;27;100697;-29
2023/01/17 12:02:55;;;;;;;0.80;0.45;;;;;;;5.77;72.43;98912.22;5053312;27;96462;-30
2023/01/17 12:05:46;;;;;;;0.20;0.20;;;;;;;5.99;73.61;98909.72;5053489;27;96513;-28
2023/01/17 12:08:30;;;;;;;0.17;0.15;;;;;;;6.12;73.48;98909.66;5051906;27;101000;-28
2023/01/17 12:11:21;;;;;;;0.40;0.40;;;;;;;6.19;73.42;98899.31;5053370;27;99118;-29
2023/01/17 12:14:24;;;;;;;0.28;0.28;;;;;;;6.30;72.36;98899.38;5051930;27;96732;-29
2023/01/17 12:17:03;;;;;;;;;;;;;;;6.40;72.40;98899.53;5052141;27;96780;-29
2023/01/17 12:19:31;;;;;;;0.13;0.13;;;;;;;6.50;73.65;98896.00;5051095;27;100810;-29
2023/01/17 12:22:15;;;;;;;0.30;0.30;;;;;;;6.53;71.12;98897.59;5052526;27;99581;-30
2023/01/17 12:25:22;;;;;;;13.63;0.63;;;;;;;6.50;70.01;98893.31;5053304;27;96564;-29
2023/01/17 12:28:14;;;;;;;0.20;0.20;;;;;;;6.49;71.03;98888.94;5051422;27;96881;-29
2023/01/17 12:30:58;;;;;;;2.22;0.40;;;;;;;6.53;70.81;98900.28;5050545;27;101089;-30
2023/01/17 12:33:36;;;;;;;0.10;0.10;;;;;;;6.62;70.64;98894.22;5053128;27;97985;-29
2023/01/17 12:36:16;;;;;;;0.10;0.10;;;;;;;6.64;71.05;98892.28;5051261;27;96716;-30
2023/01/17 12:38:44;;;;;;;0.40;0.10;;;;;;;6.67;69.58;98893.88;5051772;27;96679;-28
2023/01/17 12:41:15;;;;;;;0.15;0.10;;;;;;;6.67;69.43;98886.66;5051258;27;100947;-29
2023/01/17 12:43:43;;;;;;;0.60;0.28;;;;;;;6.72;70.20;98883.59;5052857;27;97429;-29
2023/01/17 12:46:37;;;;;;;0.30;0.13;;;;;;;6.77;70.77;98876.91;5050988;27;96535;-29
2023/01/17 12:49:21;;;;;;;0.20;0.10;;;;;;;6.74;67.63;98882.50;5052912;27;96618;-29
2023/01/17 12:51:51;;;;;;;1.02;0.17;;;;;;;6.77;70.36;98879.59;5052496;27;99239;-28
2023/01/17 12:54:23;;;;;;;0.32;0.15;;;;;;;6.58;68.25;98879.31;5050983;27;100940;-28
2023/01/17 12:56:57;;;;;;;0.17;0.00;;;;;;;6.50;69.96;98887.09;5051228;27;96498;-29
2023/01/17 12:59:37;;;;;;;0.57;0.32;;;;;;;6.45;69.99;98884.75;5051102;27;96598;-29
2023/01/17 13:02:15;;;;;;;0.25;0.08;;;;;;;6.33;67.25;98885.69;5052260;27;99240;-29
2023/01/17 13:04:54;;;;;;;0.30;0.15;;;;;;;6.34;67.73;98884.69;5052698;27;99159;-30
2023/01/17 13:07:39;;;;;;;0.00;0.00;;;;;;;6.26;69.62;98887.97;5052480;27;96808;-29
2023/01/17 13:10:16;;;;;;;0.08;0.03;;;;;;;6.23;69.84;98882.84;5052591;27;96694;-29
2023/01/17 13:12:42;;;;;;;0.15;0.15;;;;;;;6.33;68.69;98881.16;5050456;27;100836;-29
2023/01/17 13:15:15;;;;;;;0.08;0.08;;;;;;;6.44;69.99;98874.97;5052210;27;97236;-29
2023/01/17 13:17:47;;;;;;;0.00;0.00;;;;;;;6.50;69.31;98881.72;5050795;27;96898;-29